createdAt,value
2023-05-19T00:00:48.140Z,94978.00
2023-05-19T00:01:46.057Z,94978.00
2023-05-19T00:02:46.124Z,94976.00
2023-05-19T00:03:46.049Z,94976.00
2023-05-19T00:04:46.039Z,94976.00
2023-05-19T00:05:46.061Z,94972.00
2023-05-19T00:06:46.032Z,94972.00
2023-05-19T00:07:46.024Z,94972.00
2023-05-19T00:08:46.029Z,94970.00
2023-05-19T00:09:46.001Z,94972.00
2023-05-19T00:10:46.035Z,94974.00
2023-05-19T00:11:46.010Z,94974.00
2023-05-19T00:12:45.998Z,94968.00
2023-05-19T00:13:45.977Z,94968.00
2023-05-19T00:14:45.985Z,94970.00
2023-05-19T00:15:46.018Z,94970.00
2023-05-19T00:16:45.983Z,94972.00
2023-05-19T00:17:46.026Z,94970.00
2023-05-19T00:18:45.985Z,94968.00
2023-05-19T00:19:45.973Z,94970.00
2023-05-19T00:20:45.930Z,94972.00
2023-05-19T00:21:45.935Z,94968.00
2023-05-19T00:22:45.927Z,94968.00
2023-05-19T00:23:45.924Z,94968.00
2023-05-19T00:24:45.910Z,94972.00
2023-05-19T00:25:45.889Z,94970.00
2023-05-19T00:26:45.892Z,94970.00
2023-05-19T00:27:45.891Z,94968.00
2023-05-19T00:28:45.898Z,94970.00
2023-05-19T00:29:45.878Z,94972.00
2023-05-19T00:30:45.884Z,94972.00
2023-05-19T00:31:45.905Z,94972.00
2023-05-19T00:32:45.907Z,94972.00
2023-05-19T00:33:45.854Z,94974.00
2023-05-19T00:34:45.839Z,94974.00
2023-05-19T00:35:45.828Z,94974.00
2023-05-19T00:36:45.855Z,94974.00
2023-05-19T00:37:45.833Z,94972.00
2023-05-19T00:38:45.831Z,94972.00
2023-05-19T00:39:45.794Z,94974.00
2023-05-19T00:40:45.805Z,94968.00
2023-05-19T00:41:45.917Z,94970.00
2023-05-19T00:42:45.823Z,94968.00
2023-05-19T00:43:45.795Z,94966.00
2023-05-19T00:44:45.771Z,94966.00
2023-05-19T00:45:45.752Z,94966.00
2023-05-19T00:46:45.819Z,94966.00
2023-05-19T00:47:45.796Z,94962.00
2023-05-19T00:48:45.737Z,94962.00
2023-05-19T00:49:45.726Z,94964.00
2023-05-19T00:50:45.713Z,94962.00
2023-05-19T00:51:45.708Z,94962.00
2023-05-19T00:52:45.709Z,94960.00
2023-05-19T00:53:45.693Z,94960.00
2023-05-19T00:54:45.685Z,94959.00
2023-05-19T00:55:45.679Z,94960.00
2023-05-19T00:56:45.676Z,94960.00
2023-05-19T00:57:45.663Z,94960.00
2023-05-19T00:58:45.659Z,94962.00
2023-05-19T00:59:45.648Z,94962.00
2023-05-19T01:00:45.685Z,94962.00
2023-05-19T01:01:45.663Z,94962.00
2023-05-19T01:02:45.654Z,94962.00
2023-05-19T01:03:45.706Z,94962.00
2023-05-19T01:04:45.610Z,94962.00
2023-05-19T01:05:45.609Z,94962.00
2023-05-19T01:06:45.628Z,94960.00
2023-05-19T01:07:45.597Z,94960.00
2023-05-19T01:08:45.596Z,94959.00
2023-05-19T01:09:45.584Z,94957.00
2023-05-19T01:10:45.571Z,94955.00
2023-05-19T01:11:45.574Z,94957.00
2023-05-19T01:12:45.567Z,94959.00
2023-05-19T01:13:46.257Z,94957.00
2023-05-19T01:14:45.566Z,94955.00
2023-05-19T01:15:45.542Z,94953.00
2023-05-19T01:16:45.582Z,94955.00
2023-05-19T01:17:45.559Z,94957.00
2023-05-19T01:18:45.549Z,94957.00
2023-05-19T01:19:45.507Z,94957.00
2023-05-19T01:20:45.520Z,94957.00
2023-05-19T01:21:45.504Z,94957.00
2023-05-19T01:22:45.492Z,94957.00
2023-05-19T01:23:45.489Z,94955.00
2023-05-19T01:24:45.469Z,94955.00
2023-05-19T01:25:45.472Z,94955.00
2023-05-19T01:26:45.491Z,94953.00
2023-05-19T01:27:45.463Z,94957.00
2023-05-19T01:28:45.459Z,94955.00
2023-05-19T01:29:45.436Z,94955.00
2023-05-19T01:30:45.433Z,94955.00
2023-05-19T01:31:45.454Z,94953.00
2023-05-19T01:32:45.450Z,94953.00
2023-05-19T01:33:45.408Z,94953.00
2023-05-19T01:34:45.398Z,94951.00
2023-05-19T01:35:45.413Z,94953.00
2023-05-19T01:36:45.405Z,94953.00
2023-05-19T01:37:45.389Z,94955.00
2023-05-19T01:38:45.371Z,94955.00
2023-05-19T01:39:45.389Z,94957.00
2023-05-19T01:40:45.392Z,94957.00
2023-05-19T01:41:45.374Z,94957.00
2023-05-19T01:42:45.345Z,94959.00
2023-05-19T01:43:45.345Z,94959.00
2023-05-19T01:44:45.338Z,94955.00
2023-05-19T01:45:45.387Z,94959.00
2023-05-19T01:46:45.336Z,94957.00
2023-05-19T01:47:45.386Z,94955.00
2023-05-19T01:48:45.306Z,94959.00
2023-05-19T01:49:45.295Z,94957.00
2023-05-19T01:50:45.300Z,94957.00
2023-05-19T01:51:45.322Z,94953.00
2023-05-19T01:52:45.285Z,94955.00
2023-05-19T01:53:45.280Z,94955.00
2023-05-19T01:54:45.293Z,94957.00
2023-05-19T01:55:45.259Z,94953.00
2023-05-19T01:56:45.266Z,94959.00
2023-05-19T01:57:45.260Z,94957.00
2023-05-19T01:58:45.246Z,94957.00
2023-05-19T01:59:45.237Z,94959.00
2023-05-19T02:00:45.212Z,94957.00
2023-05-19T02:01:45.268Z,94957.00
2023-05-19T02:02:45.260Z,94959.00
2023-05-19T02:03:45.214Z,94959.00
2023-05-19T02:04:45.252Z,94959.00
2023-05-19T02:05:45.214Z,94957.00
2023-05-19T02:06:45.190Z,94959.00
2023-05-19T02:07:45.196Z,94959.00
2023-05-19T02:08:45.164Z,94960.00
2023-05-19T02:09:45.167Z,94960.00
2023-05-19T02:10:45.162Z,94962.00
2023-05-19T02:11:45.147Z,94964.00
2023-05-19T02:12:45.152Z,94962.00
2023-05-19T02:13:45.133Z,94962.00
2023-05-19T02:14:45.156Z,94964.00
2023-05-19T02:15:45.163Z,94964.00
2023-05-19T02:16:45.138Z,94964.00
2023-05-19T02:17:45.153Z,94964.00
2023-05-19T02:18:45.231Z,94966.00
2023-05-19T02:19:45.109Z,94964.00
2023-05-19T02:20:45.090Z,94964.00
2023-05-19T02:21:45.105Z,94964.00
2023-05-19T02:22:45.105Z,94964.00
2023-05-19T02:23:45.070Z,94960.00
2023-05-19T02:24:45.099Z,94964.00
2023-05-19T02:25:45.068Z,94962.00
2023-05-19T02:26:45.058Z,94962.00
2023-05-19T02:27:45.043Z,94960.00
2023-05-19T02:28:45.049Z,94959.00
2023-05-19T02:29:45.025Z,94960.00
2023-05-19T02:30:45.034Z,94960.00
2023-05-19T02:31:45.043Z,94960.00
2023-05-19T02:32:45.075Z,94960.00
2023-05-19T02:33:45.013Z,94959.00
2023-05-19T02:34:44.981Z,94960.00
2023-05-19T02:35:44.983Z,94962.00
2023-05-19T02:36:44.977Z,94962.00
2023-05-19T02:37:45.001Z,94964.00
2023-05-19T02:38:44.959Z,94962.00
2023-05-19T02:39:44.950Z,94962.00
2023-05-19T02:40:44.972Z,94962.00
2023-05-19T02:41:44.997Z,94962.00
2023-05-19T02:42:44.958Z,94960.00
2023-05-19T02:43:44.930Z,94962.00
2023-05-19T02:44:44.968Z,94960.00
2023-05-19T02:45:44.962Z,94959.00
2023-05-19T02:46:44.984Z,94960.00
2023-05-19T02:47:44.944Z,94960.00
2023-05-19T02:48:44.909Z,94959.00
2023-05-19T02:49:44.890Z,94960.00
2023-05-19T02:50:44.892Z,94960.00
2023-05-19T02:51:44.926Z,94960.00
2023-05-19T02:52:44.876Z,94957.00
2023-05-19T02:53:44.882Z,94957.00
2023-05-19T02:54:44.859Z,94960.00
2023-05-19T02:55:44.842Z,94959.00
2023-05-19T02:56:44.855Z,94957.00
2023-05-19T02:57:44.854Z,94960.00
2023-05-19T02:58:44.838Z,94957.00
2023-05-19T02:59:44.858Z,94955.00
2023-05-19T03:00:44.814Z,94955.00
2023-05-19T03:01:44.875Z,94955.00
2023-05-19T03:02:44.917Z,94955.00
2023-05-19T03:03:44.871Z,94951.00
2023-05-19T03:04:44.786Z,94949.00
2023-05-19T03:05:44.788Z,94947.00
2023-05-19T03:06:44.788Z,94949.00
2023-05-19T03:07:44.769Z,94951.00
2023-05-19T03:08:44.766Z,94949.00
2023-05-19T03:09:44.796Z,94949.00
2023-05-19T03:10:44.742Z,94947.00
2023-05-19T03:11:44.763Z,94947.00
2023-05-19T03:12:44.741Z,94945.00
2023-05-19T03:13:44.724Z,94945.00
2023-05-19T03:14:44.739Z,94945.00
2023-05-19T03:15:44.701Z,94945.00
2023-05-19T03:16:44.953Z,94943.00
2023-05-19T03:17:44.795Z,94945.00
2023-05-19T03:18:44.718Z,94949.00
2023-05-19T03:19:44.675Z,94945.00
2023-05-19T03:20:44.704Z,94949.00
2023-05-19T03:21:44.700Z,94949.00
2023-05-19T03:22:44.672Z,94947.00
2023-05-19T03:23:44.650Z,94945.00
2023-05-19T03:24:44.657Z,94945.00
2023-05-19T03:25:44.654Z,94943.00
2023-05-19T03:26:44.645Z,94943.00
2023-05-19T03:27:44.626Z,94941.00
2023-05-19T03:28:44.621Z,94943.00
2023-05-19T03:29:44.622Z,94941.00
2023-05-19T03:30:44.612Z,94943.00
2023-05-19T03:31:44.617Z,94943.00
2023-05-19T03:32:44.663Z,94945.00
2023-05-19T03:33:44.666Z,94943.00
2023-05-19T03:34:44.612Z,94943.00
2023-05-19T03:35:44.588Z,94943.00
2023-05-19T03:36:44.565Z,94939.00
2023-05-19T03:37:44.556Z,94943.00
2023-05-19T03:38:44.553Z,94943.00
2023-05-19T03:39:44.540Z,94941.00
2023-05-19T03:40:44.528Z,94941.00
2023-05-19T03:41:44.557Z,94939.00
2023-05-19T03:42:44.533Z,94939.00
2023-05-19T03:43:44.521Z,94937.00
2023-05-19T03:44:44.509Z,94935.00
2023-05-19T03:45:44.544Z,94937.00
2023-05-19T03:46:44.540Z,94935.00
2023-05-19T03:47:44.563Z,94935.00
2023-05-19T03:48:44.481Z,94935.00
2023-05-19T03:49:44.485Z,94935.00
2023-05-19T03:50:44.477Z,94937.00
2023-05-19T03:51:44.460Z,94937.00
2023-05-19T03:52:44.472Z,94937.00
2023-05-19T03:53:44.474Z,94939.00
2023-05-19T03:54:44.449Z,94941.00
2023-05-19T03:55:44.465Z,94941.00
2023-05-19T03:56:44.439Z,94941.00
2023-05-19T03:57:44.465Z,94939.00
2023-05-19T03:58:44.416Z,94941.00
2023-05-19T03:59:44.405Z,94943.00
2023-05-19T04:00:44.392Z,94943.00
2023-05-19T04:01:44.400Z,94943.00
2023-05-19T04:02:44.545Z,94943.00
2023-05-19T04:03:44.441Z,94941.00
2023-05-19T04:04:44.434Z,94939.00
2023-05-19T04:05:44.384Z,94939.00
2023-05-19T04:06:44.355Z,94937.00
2023-05-19T04:07:44.363Z,94937.00
2023-05-19T04:08:44.350Z,94937.00
2023-05-19T04:09:44.349Z,94933.00
2023-05-19T04:10:44.346Z,94935.00
2023-05-19T04:11:44.334Z,94935.00
2023-05-19T04:12:44.342Z,94933.00
2023-05-19T04:13:45.249Z,94933.00
2023-05-19T04:14:44.302Z,94941.00
2023-05-19T04:15:44.319Z,94941.00
2023-05-19T04:16:44.332Z,94935.00
2023-05-19T04:17:44.356Z,94941.00
2023-05-19T04:18:44.303Z,94941.00
2023-05-19T04:19:44.322Z,94943.00
2023-05-19T04:20:44.282Z,94943.00
2023-05-19T04:21:44.295Z,94943.00
2023-05-19T04:22:44.263Z,94939.00
2023-05-19T04:23:44.242Z,94943.00
2023-05-19T04:24:44.261Z,94937.00
2023-05-19T04:25:44.219Z,94943.00
2023-05-19T04:26:44.211Z,94941.00
2023-05-19T04:27:44.213Z,94943.00
2023-05-19T04:28:44.217Z,94943.00
2023-05-19T04:29:44.217Z,94945.00
2023-05-19T04:30:44.235Z,94949.00
2023-05-19T04:31:44.353Z,94947.00
2023-05-19T04:32:44.243Z,94945.00
2023-05-19T04:33:44.195Z,94945.00
2023-05-19T04:34:44.163Z,94945.00
2023-05-19T04:35:44.179Z,94945.00
2023-05-19T04:36:44.162Z,94949.00
2023-05-19T04:37:44.154Z,94951.00
2023-05-19T04:38:44.147Z,94951.00
2023-05-19T04:39:44.127Z,94951.00
2023-05-19T04:40:44.131Z,94951.00
2023-05-19T04:41:44.126Z,94951.00
2023-05-19T04:42:44.125Z,94949.00
2023-05-19T04:43:44.110Z,94949.00
2023-05-19T04:44:44.102Z,94951.00
2023-05-19T04:45:44.105Z,94953.00
2023-05-19T04:46:44.120Z,94953.00
2023-05-19T04:47:44.101Z,94951.00
2023-05-19T04:48:44.126Z,94951.00
2023-05-19T04:49:44.056Z,94949.00
2023-05-19T04:50:44.056Z,94947.00
2023-05-19T04:51:44.045Z,94945.00
2023-05-19T04:52:44.062Z,94945.00
2023-05-19T04:53:44.046Z,94945.00
2023-05-19T04:54:44.018Z,94947.00
2023-05-19T04:55:44.034Z,94951.00
2023-05-19T04:56:44.036Z,94951.00
2023-05-19T04:57:44.103Z,94951.00
2023-05-19T04:58:44.024Z,94953.00
2023-05-19T04:59:44.057Z,94953.00
2023-05-19T05:00:44.023Z,94955.00
2023-05-19T05:01:44.072Z,94955.00
2023-05-19T05:02:44.100Z,94953.00
2023-05-19T05:03:44.287Z,94951.00
2023-05-19T05:04:44.049Z,94949.00
2023-05-19T05:05:44.037Z,94949.00
2023-05-19T05:06:44.039Z,94947.00
2023-05-19T05:07:44.039Z,94949.00
2023-05-19T05:08:44.046Z,94951.00
2023-05-19T05:09:44.045Z,94949.00
2023-05-19T05:10:44.041Z,94949.00
2023-05-19T05:11:44.060Z,94949.00
2023-05-19T05:12:44.033Z,94949.00
2023-05-19T05:13:44.046Z,94949.00
2023-05-19T05:14:44.044Z,94947.00
2023-05-19T05:15:44.037Z,94949.00
2023-05-19T05:16:44.224Z,94951.00
2023-05-19T05:17:44.085Z,94949.00
2023-05-19T05:18:44.985Z,94949.00
2023-05-19T05:19:44.059Z,94951.00
2023-05-19T05:20:44.087Z,94953.00
2023-05-19T05:21:44.088Z,94951.00
2023-05-19T05:22:44.065Z,94953.00
2023-05-19T05:23:44.084Z,94953.00
2023-05-19T05:24:44.074Z,94953.00
2023-05-19T05:25:44.073Z,94951.00
2023-05-19T05:26:44.103Z,94949.00
2023-05-19T05:27:44.091Z,94951.00
2023-05-19T05:28:44.089Z,94949.00
2023-05-19T05:29:44.083Z,94949.00
2023-05-19T05:30:44.102Z,94951.00
2023-05-19T05:31:44.104Z,94953.00
2023-05-19T05:32:44.159Z,94949.00
2023-05-19T05:33:44.160Z,94953.00
2023-05-19T05:34:44.129Z,94953.00
2023-05-19T05:35:44.142Z,94949.00
2023-05-19T05:36:44.107Z,94949.00
2023-05-19T05:37:44.117Z,94947.00
2023-05-19T05:38:44.122Z,94947.00
2023-05-19T05:39:44.119Z,94943.00
2023-05-19T05:40:44.128Z,94945.00
2023-05-19T05:41:44.158Z,94943.00
2023-05-19T05:42:44.121Z,94949.00
2023-05-19T05:43:44.134Z,94947.00
2023-05-19T05:44:44.137Z,94949.00
2023-05-19T05:45:44.204Z,94951.00
2023-05-19T05:46:44.138Z,94949.00
2023-05-19T05:47:44.205Z,94953.00
2023-05-19T05:48:44.139Z,94949.00
2023-05-19T05:49:44.132Z,94947.00
2023-05-19T05:50:44.135Z,94945.00
2023-05-19T05:51:54.311Z,94945.00
2023-05-19T05:52:45.146Z,94943.00
2023-05-19T05:53:44.135Z,94945.00
2023-05-19T05:54:44.132Z,94943.00
2023-05-19T05:55:44.106Z,94945.00
2023-05-19T05:56:44.132Z,94947.00
2023-05-19T05:57:44.125Z,94947.00
2023-05-19T05:58:44.114Z,94943.00
2023-05-19T05:59:44.102Z,94945.00
2023-05-19T06:00:44.101Z,94945.00
2023-05-19T06:01:44.167Z,94947.00
2023-05-19T06:02:44.125Z,94947.00
2023-05-19T06:03:44.136Z,94947.00
2023-05-19T06:04:44.054Z,94945.00
2023-05-19T06:05:44.071Z,94945.00
2023-05-19T06:06:44.048Z,94947.00
2023-05-19T06:07:44.081Z,94945.00
2023-05-19T06:08:44.059Z,94943.00
2023-05-19T06:09:44.036Z,94943.00
2023-05-19T06:10:45.167Z,94941.00
2023-05-19T06:11:44.285Z,94941.00
2023-05-19T06:12:44.007Z,94939.00
2023-05-19T06:13:43.985Z,94943.00
2023-05-19T06:14:44.011Z,94943.00
2023-05-19T06:15:44.003Z,94945.00
2023-05-19T06:16:43.989Z,94945.00
2023-05-19T06:17:43.993Z,94943.00
2023-05-19T06:18:43.980Z,94943.00
2023-05-19T06:19:43.938Z,94947.00
2023-05-19T06:20:43.943Z,94945.00
2023-05-19T06:21:43.931Z,94945.00
2023-05-19T06:22:43.926Z,94949.00
2023-05-19T06:23:43.912Z,94947.00
2023-05-19T06:24:43.916Z,94945.00
2023-05-19T06:25:43.918Z,94943.00
2023-05-19T06:26:43.908Z,94941.00
2023-05-19T06:27:43.886Z,94941.00
2023-05-19T06:28:43.885Z,94937.00
2023-05-19T06:29:43.880Z,94939.00
2023-05-19T06:30:43.880Z,94939.00
2023-05-19T06:31:43.942Z,94939.00
2023-05-19T06:32:43.920Z,94937.00
2023-05-19T06:33:43.862Z,94939.00
2023-05-19T06:34:43.894Z,94937.00
2023-05-19T06:35:43.888Z,94937.00
2023-05-19T06:36:43.871Z,94937.00
2023-05-19T06:37:43.830Z,94933.00
2023-05-19T06:38:43.834Z,94933.00
2023-05-19T06:39:43.829Z,94933.00
2023-05-19T06:40:43.818Z,94935.00
2023-05-19T06:41:43.803Z,94933.00
2023-05-19T06:42:43.800Z,94933.00
2023-05-19T06:43:43.803Z,94935.00
2023-05-19T06:44:43.791Z,94933.00
2023-05-19T06:45:43.774Z,94933.00
2023-05-19T06:46:43.832Z,94935.00
2023-05-19T06:47:43.813Z,94935.00
2023-05-19T06:48:43.771Z,94933.00
2023-05-19T06:49:43.742Z,94935.00
2023-05-19T06:50:43.772Z,94933.00
2023-05-19T06:51:43.744Z,94933.00
2023-05-19T06:52:43.724Z,94931.00
2023-05-19T06:53:43.772Z,94931.00
2023-05-19T06:54:43.791Z,94933.00
2023-05-19T06:55:57.450Z,94933.00
2023-05-19T06:56:44.734Z,94929.00
2023-05-19T06:57:43.716Z,94927.00
2023-05-19T06:58:43.691Z,94931.00
2023-05-19T06:59:43.692Z,94929.00
2023-05-19T07:00:43.685Z,94929.00
2023-05-19T07:01:43.710Z,94931.00
2023-05-19T07:02:43.785Z,94931.00
2023-05-19T07:03:43.750Z,94929.00
2023-05-19T07:04:43.670Z,94931.00
2023-05-19T07:05:43.671Z,94931.00
2023-05-19T07:06:43.646Z,94931.00
2023-05-19T07:07:43.634Z,94929.00
2023-05-19T07:08:43.646Z,94929.00
2023-05-19T07:09:43.643Z,94929.00
2023-05-19T07:10:43.613Z,94927.00
2023-05-19T07:11:43.604Z,94929.00
2023-05-19T07:12:43.605Z,94929.00
2023-05-19T07:13:43.611Z,94927.00
2023-05-19T07:14:43.573Z,94925.00
2023-05-19T07:15:43.584Z,94923.00
2023-05-19T07:16:43.632Z,94923.00
2023-05-19T07:17:43.627Z,94919.00
2023-05-19T07:18:43.574Z,94923.00
2023-05-19T07:19:43.548Z,94919.00
2023-05-19T07:20:43.555Z,94921.00
2023-05-19T07:21:43.553Z,94925.00
2023-05-19T07:22:43.521Z,94919.00
2023-05-19T07:23:43.533Z,94917.00
2023-05-19T07:24:43.528Z,94919.00
2023-05-19T07:25:43.503Z,94917.00
2023-05-19T07:26:43.495Z,94915.00
2023-05-19T07:27:43.488Z,94915.00
2023-05-19T07:28:43.520Z,94915.00
2023-05-19T07:29:43.466Z,94908.00
2023-05-19T07:30:43.472Z,94908.00
2023-05-19T07:31:43.501Z,94902.00
2023-05-19T07:32:43.541Z,94904.00
2023-05-19T07:33:43.447Z,94902.00
2023-05-19T07:34:43.440Z,94906.00
2023-05-19T07:35:43.451Z,94902.00
2023-05-19T07:36:43.436Z,94908.00
2023-05-19T07:37:43.483Z,94902.00
2023-05-19T07:38:43.440Z,94904.00
2023-05-19T07:39:43.411Z,94906.00
2023-05-19T07:40:43.409Z,94904.00
2023-05-19T07:41:43.429Z,94904.00
2023-05-19T07:42:43.385Z,94902.00
2023-05-19T07:43:43.392Z,94898.00
2023-05-19T07:44:43.398Z,94898.00
2023-05-19T07:45:43.401Z,94888.00
2023-05-19T07:46:43.376Z,94890.00
2023-05-19T07:47:43.441Z,94890.00
2023-05-19T07:48:43.357Z,94890.00
2023-05-19T07:49:43.352Z,94890.00
2023-05-19T07:50:43.352Z,94890.00
2023-05-19T07:51:43.350Z,94886.00
2023-05-19T07:52:43.369Z,94884.00
2023-05-19T07:53:43.353Z,94886.00
2023-05-19T07:54:43.363Z,94882.00
2023-05-19T07:55:43.391Z,94884.00
2023-05-19T07:56:43.386Z,94882.00
2023-05-19T07:57:43.423Z,94884.00
2023-05-19T07:58:43.398Z,94884.00
2023-05-19T07:59:43.406Z,94878.00
2023-05-19T08:00:43.442Z,94880.00
2023-05-19T08:01:43.439Z,94878.00
2023-05-19T08:02:43.468Z,94880.00
2023-05-19T08:03:43.527Z,94882.00
2023-05-19T08:04:43.445Z,94880.00
2023-05-19T08:05:43.468Z,94878.00
2023-05-19T08:06:43.443Z,94878.00
2023-05-19T08:07:43.445Z,94876.00
2023-05-19T08:08:43.462Z,94878.00
2023-05-19T08:09:43.525Z,94876.00
2023-05-19T08:10:43.465Z,94874.00
2023-05-19T08:11:43.471Z,94870.00
2023-05-19T08:12:43.494Z,94872.00
2023-05-19T08:13:43.491Z,94872.00
2023-05-19T08:14:43.514Z,94872.00
2023-05-19T08:15:43.549Z,94872.00
2023-05-19T08:16:43.507Z,94870.00
2023-05-19T08:17:43.570Z,94870.00
2023-05-19T08:18:43.552Z,94870.00
2023-05-19T08:19:43.522Z,94868.00
2023-05-19T08:20:43.508Z,94868.00
2023-05-19T08:21:43.548Z,94868.00
2023-05-19T08:22:43.584Z,94868.00
2023-05-19T08:23:43.552Z,94868.00
2023-05-19T08:24:43.552Z,94866.00
2023-05-19T08:25:43.568Z,94866.00
2023-05-19T08:26:43.581Z,94864.00
2023-05-19T08:27:43.578Z,94860.00
2023-05-19T08:28:43.581Z,94860.00
2023-05-19T08:29:43.597Z,94859.00
2023-05-19T08:30:43.583Z,94859.00
2023-05-19T08:31:43.610Z,94860.00
2023-05-19T08:32:43.609Z,94859.00
2023-05-19T08:33:43.628Z,94855.00
2023-05-19T08:34:43.624Z,94859.00
2023-05-19T08:35:43.623Z,94855.00
2023-05-19T08:36:43.638Z,94855.00
2023-05-19T08:37:43.639Z,94855.00
2023-05-19T08:38:43.630Z,94853.00
2023-05-19T08:39:43.689Z,94853.00
2023-05-19T08:40:43.690Z,94853.00
2023-05-19T08:41:43.778Z,94853.00
2023-05-19T08:42:43.687Z,94857.00
2023-05-19T08:43:43.696Z,94855.00
2023-05-19T08:44:43.676Z,94857.00
2023-05-19T08:45:43.685Z,94851.00
2023-05-19T08:46:43.764Z,94855.00
2023-05-19T08:47:43.717Z,94851.00
2023-05-19T08:48:43.684Z,94851.00
2023-05-19T08:49:43.660Z,94849.00
2023-05-19T08:50:43.685Z,94849.00
2023-05-19T08:51:43.710Z,94847.00
2023-05-19T08:52:44.205Z,94847.00
2023-05-19T08:53:43.659Z,94845.00
2023-05-19T08:54:43.655Z,94841.00
2023-05-19T08:55:43.704Z,94837.00
2023-05-19T08:56:43.701Z,94829.00
2023-05-19T08:57:43.678Z,94833.00
2023-05-19T08:58:43.778Z,94829.00
2023-05-19T08:59:43.692Z,94825.00
2023-05-19T09:00:43.748Z,94827.00
2023-05-19T09:01:43.688Z,94825.00
2023-05-19T09:02:54.973Z,94825.00
2023-05-19T09:03:44.775Z,94825.00
2023-05-19T09:04:43.730Z,94825.00
2023-05-19T09:05:43.670Z,94827.00
2023-05-19T09:06:43.628Z,94823.00
2023-05-19T09:07:43.641Z,94829.00
2023-05-19T09:08:43.652Z,94827.00
2023-05-19T09:09:43.691Z,94823.00
2023-05-19T09:10:43.617Z,94815.00
2023-05-19T09:11:43.601Z,94817.00
2023-05-19T09:12:43.598Z,94817.00
2023-05-19T09:13:43.609Z,94817.00
2023-05-19T09:14:43.571Z,94815.00
2023-05-19T09:15:43.569Z,94815.00
2023-05-19T09:16:43.682Z,94813.00
2023-05-19T09:17:43.566Z,94817.00
2023-05-19T09:18:43.557Z,94813.00
2023-05-19T09:19:43.571Z,94812.00
2023-05-19T09:20:43.552Z,94817.00
2023-05-19T09:21:44.573Z,94813.00
2023-05-19T09:22:43.517Z,94810.00
2023-05-19T09:23:43.535Z,94812.00
2023-05-19T09:24:43.536Z,94810.00
2023-05-19T09:25:43.570Z,94808.00
2023-05-19T09:26:43.602Z,94806.00
2023-05-19T09:27:43.638Z,94802.00
2023-05-19T09:28:43.608Z,94804.00
2023-05-19T09:29:43.644Z,94802.00
2023-05-19T09:30:43.706Z,94798.00
2023-05-19T09:31:44.362Z,94802.00
2023-05-19T09:32:43.796Z,94796.00
2023-05-19T09:33:45.800Z,94794.00
2023-05-19T09:34:43.820Z,94794.00
2023-05-19T09:35:43.832Z,94790.00
2023-05-19T09:36:43.854Z,94788.00
2023-05-19T09:37:43.862Z,94790.00
2023-05-19T09:38:43.874Z,94790.00
2023-05-19T09:39:43.896Z,94790.00
2023-05-19T09:40:43.934Z,94790.00
2023-05-19T09:41:43.933Z,94786.00
2023-05-19T09:42:43.976Z,94786.00
2023-05-19T09:43:43.973Z,94784.00
2023-05-19T09:44:44.000Z,94780.00
2023-05-19T09:45:44.096Z,94784.00
2023-05-19T09:46:44.098Z,94782.00
2023-05-19T09:47:44.158Z,94782.00
2023-05-19T09:48:44.154Z,94776.00
2023-05-19T09:49:44.175Z,94774.00
2023-05-19T09:50:44.203Z,94774.00
2023-05-19T09:51:44.266Z,94772.00
2023-05-19T09:52:44.285Z,94768.00
2023-05-19T09:53:44.280Z,94768.00
2023-05-19T09:54:44.340Z,94765.00
2023-05-19T09:55:44.351Z,94766.00
2023-05-19T09:56:44.375Z,94768.00
2023-05-19T09:57:44.384Z,94766.00
2023-05-19T09:58:44.424Z,94768.00
2023-05-19T09:59:44.436Z,94763.00
2023-05-19T10:00:44.473Z,94759.00
2023-05-19T10:01:44.587Z,94755.00
2023-05-19T10:02:44.605Z,94753.00
2023-05-19T10:03:44.576Z,94751.00
2023-05-19T10:04:44.630Z,94749.00
2023-05-19T10:05:44.672Z,94749.00
2023-05-19T10:06:44.743Z,94749.00
2023-05-19T10:07:44.775Z,94749.00
2023-05-19T10:08:44.802Z,94745.00
2023-05-19T10:09:44.876Z,94741.00
2023-05-19T10:10:44.903Z,94739.00
2023-05-19T10:11:44.974Z,94739.00
2023-05-19T10:12:45.016Z,94741.00
2023-05-19T10:13:45.086Z,94733.00
2023-05-19T10:14:45.154Z,94733.00
2023-05-19T10:15:57.150Z,94733.00
2023-05-19T10:16:46.254Z,94733.00
2023-05-19T10:17:45.321Z,94731.00
2023-05-19T10:18:45.204Z,94731.00
2023-05-19T10:19:45.154Z,94731.00
2023-05-19T10:20:45.167Z,94731.00
2023-05-19T10:21:45.152Z,94733.00
2023-05-19T10:22:45.155Z,94729.00
2023-05-19T10:23:45.126Z,94733.00
2023-05-19T10:24:45.129Z,94731.00
2023-05-19T10:25:45.187Z,94727.00
2023-05-19T10:26:45.280Z,94725.00
2023-05-19T10:27:45.320Z,94725.00
2023-05-19T10:28:45.376Z,94721.00
2023-05-19T10:29:45.443Z,94718.00
2023-05-19T10:30:45.496Z,94716.00
2023-05-19T10:31:45.591Z,94716.00
2023-05-19T10:32:45.643Z,94714.00
2023-05-19T10:33:45.844Z,94714.00
2023-05-19T10:34:45.775Z,94708.00
2023-05-19T10:35:47.282Z,94706.00
2023-05-19T10:36:45.913Z,94704.00
2023-05-19T10:37:45.934Z,94702.00
2023-05-19T10:38:46.016Z,94704.00
2023-05-19T10:39:46.073Z,94700.00
2023-05-19T10:40:46.132Z,94700.00
2023-05-19T10:41:47.051Z,94696.00
2023-05-19T10:42:46.245Z,94696.00
2023-05-19T10:43:46.303Z,94698.00
2023-05-19T10:44:46.405Z,94702.00
2023-05-19T10:45:46.446Z,94698.00
2023-05-19T10:46:46.518Z,94700.00
2023-05-19T10:47:46.606Z,94700.00
2023-05-19T10:48:46.666Z,94700.00
2023-05-19T10:49:46.753Z,94702.00
2023-05-19T10:50:46.767Z,94700.00
2023-05-19T10:51:46.864Z,94698.00
2023-05-19T10:52:46.890Z,94700.00
2023-05-19T10:53:46.957Z,94698.00
2023-05-19T10:54:47.027Z,94692.00
2023-05-19T10:55:47.091Z,94694.00
2023-05-19T10:56:47.175Z,94688.00
2023-05-19T10:57:47.211Z,94690.00
2023-05-19T10:58:47.263Z,94690.00
2023-05-19T10:59:47.393Z,94688.00
2023-05-19T11:00:47.438Z,94686.00
2023-05-19T11:01:47.522Z,94686.00
2023-05-19T11:02:47.574Z,94686.00
2023-05-19T11:03:47.619Z,94686.00
2023-05-19T11:04:50.963Z,94684.00
2023-05-19T11:05:47.652Z,94684.00
2023-05-19T11:06:47.690Z,94684.00
2023-05-19T11:07:47.633Z,94682.00
2023-05-19T11:08:47.636Z,94680.00
2023-05-19T11:09:47.632Z,94678.00
2023-05-19T11:10:47.628Z,94680.00
2023-05-19T11:11:47.621Z,94676.00
2023-05-19T11:12:47.614Z,94676.00
2023-05-19T11:13:47.626Z,94676.00
2023-05-19T11:14:47.593Z,94676.00
2023-05-19T11:15:47.579Z,94672.00
2023-05-19T11:16:47.739Z,94670.00
2023-05-19T11:18:47.598Z,94672.00
2023-05-19T11:19:47.542Z,94668.00
2023-05-19T11:20:47.629Z,94666.00
2023-05-19T11:21:48.038Z,94664.00
2023-05-19T11:22:47.547Z,94663.00
2023-05-19T11:23:47.559Z,94661.00
2023-05-19T11:24:47.531Z,94661.00
2023-05-19T11:25:47.585Z,94655.00
2023-05-19T11:26:47.589Z,94655.00
2023-05-19T11:27:47.545Z,94655.00
2023-05-19T11:28:47.619Z,94655.00
2023-05-19T11:29:47.671Z,94653.00
2023-05-19T11:30:47.738Z,94653.00
2023-05-19T11:31:47.857Z,94655.00
2023-05-19T11:32:47.916Z,94653.00
2023-05-19T11:33:47.957Z,94651.00
2023-05-19T11:34:48.020Z,94651.00
2023-05-19T11:35:48.042Z,94649.00
2023-05-19T11:36:48.164Z,94647.00
2023-05-19T11:37:48.163Z,94645.00
2023-05-19T11:38:48.246Z,94643.00
2023-05-19T11:39:48.314Z,94643.00
2023-05-19T11:40:48.370Z,94633.00
2023-05-19T11:41:48.464Z,94631.00
2023-05-19T11:42:48.495Z,94631.00
2023-05-19T11:43:48.559Z,94623.00
2023-05-19T11:44:48.647Z,94621.00
2023-05-19T11:45:48.748Z,94621.00